Time;durP1;ratioP1;P1;durP2;ratioP2;P2;SDS_P1;SDS_P2;PMS_P1;PMS_P2;Temp;Humidity;BMP_temperature;BMP_pressure;BME280_temperature;BME280_humidity;BME280_pressure;Samples;Min_cycle;Max_cycle;Signal;HPM_P1;HPM_P2
2021/07/28 00:00:52;;;;;;;11.13;5.70;;;;;;;16.51;90.54;99616.78;5038746;28;20049;-72
2021/07/28 00:03:19;;;;;;;7.60;5.63;;;;;;;16.43;89.90;99597.81;5038434;28;20450;-72
2021/07/28 00:05:46;;;;;;;9.25;6.50;;;;;;;16.48;90.26;99609.00;5038207;28;20053;-72
2021/07/28 00:08:13;;;;;;;9.40;5.68;;;;;;;16.46;89.35;99612.81;5038678;28;20068;-71
2021/07/28 00:10:39;;;;;;;9.73;5.72;;;;;;;16.45;90.88;99598.50;5038147;28;20461;-71
2021/07/28 00:13:06;;;;;;;9.68;5.90;;;;;;;16.46;89.32;99593.97;5038242;28;20045;-72
2021/07/28 00:15:33;;;;;;;7.35;5.75;;;;;;;16.47;89.28;99595.66;5038225;28;20180;-72
2021/07/28 00:18:05;;;;;;;7.75;5.60;;;;;;;16.43;90.04;99604.06;5038317;28;20077;-72
2021/07/28 00:23:14;;;;;;;8.73;5.82;;;;;;;16.34;90.64;99599.53;5057961;28;20049;-72
2021/07/28 00:25:42;;;;;;;7.10;5.88;;;;;;;16.35;90.04;99598.53;5057978;28;20393;-71
2021/07/28 00:28:10;;;;;;;9.70;5.97;;;;;;;16.33;90.69;99595.13;5058266;28;20178;-71
2021/07/28 00:30:37;;;;;;;8.82;6.07;;;;;;;16.33;90.92;99595.13;5058038;28;20044;-72
2021/07/28 00:33:04;;;;;;;9.52;6.82;;;;;;;16.14;92.38;99577.19;5057776;28;20094;-72
2021/07/28 00:35:30;;;;;;;7.55;5.60;;;;;;;16.27;91.76;99590.31;5057794;28;20053;-72
2021/07/28 00:38:05;;;;;;;13.63;6.50;;;;;;;16.20;92.28;99595.44;5040602;28;20053;-71
2021/07/28 00:40:32;;;;;;;13.10;6.72;;;;;;;16.15;92.65;99585.13;5057655;28;20110;-71
2021/07/28 00:43:14;;;;;;;10.02;7.28;;;;;;;16.19;92.31;99590.22;5058015;28;20051;-71
2021/07/28 00:45:42;;;;;;;7.65;6.13;;;;;;;16.14;92.94;99582.56;5057763;28;20057;-71
2021/07/28 00:48:10;;;;;;;10.73;6.88;;;;;;;16.14;93.16;99583.41;5056896;28;20061;-72
2021/07/28 00:50:38;;;;;;;11.38;7.22;;;;;;;16.09;93.23;99572.25;5057471;28;20052;-72
2021/07/28 00:53:05;;;;;;;9.95;7.70;;;;;;;16.11;93.46;99577.47;5046310;28;20053;-71
2021/07/28 00:55:32;;;;;;;10.77;6.45;;;;;;;16.13;93.39;99580.88;5037917;28;20049;-72
2021/07/28 00:58:00;;;;;;;10.57;7.45;;;;;;;16.12;93.74;99576.50;5037925;28;20068;-72
2021/07/28 01:00:28;;;;;;;8.57;6.57;;;;;;;16.09;94.07;99577.63;5037393;28;20057;-72
2021/07/28 01:02:55;;;;;;;9.88;7.30;;;;;;;16.11;93.12;99566.69;5037655;28;20103;-71
2021/07/28 01:05:22;;;;;;;9.65;6.80;;;;;;;16.12;93.15;99566.56;5037204;28;20054;-71
2021/07/28 01:07:49;;;;;;;14.50;7.68;;;;;;;16.17;94.16;99562.59;5037375;28;20049;-72
2021/07/28 01:10:16;;;;;;;8.32;6.72;;;;;;;16.12;94.58;99566.56;5037403;28;20050;-71
2021/07/28 01:12:46;;;;;;;10.75;6.65;;;;;;;16.11;94.39;99562.16;5019742;28;20057;-71
2021/07/28 01:15:21;;;;;;;7.32;6.18;;;;;;;16.15;95.20;99555.50;5037198;28;20080;-71
2021/07/28 01:17:50;;;;;;;8.82;6.88;;;;;;;16.20;94.33;99563.16;5037342;28;20442;-72
2021/07/28 01:20:22;;;;;;;9.82;6.90;;;;;;;16.19;94.34;99549.81;5038791;28;20049;-72
2021/07/28 01:22:50;;;;;;;9.35;6.80;;;;;;;16.35;93.53;99565.38;5056923;28;20098;-71
2021/07/28 01:25:16;;;;;;;9.50;5.90;;;;;;;16.39;93.12;99556.84;5056955;28;20106;-72
2021/07/28 01:27:43;;;;;;;10.43;6.90;;;;;;;16.43;92.85;99552.88;5056789;28;20075;-71
2021/07/28 01:30:16;;;;;;;10.15;6.45;;;;;;;16.40;92.97;99558.53;5057192;28;20053;-72
2021/07/28 01:32:43;;;;;;;11.45;6.78;;;;;;;16.35;93.95;99544.66;5056671;28;20095;-71
2021/07/28 01:35:15;;;;;;;10.02;6.78;;;;;;;16.38;94.27;99551.59;5057036;28;20075;-72
2021/07/28 01:37:45;;;;;;;8.23;6.22;;;;;;;16.23;94.08;99535.91;5056935;28;20059;-72
2021/07/28 01:40:12;;;;;;;8.82;6.45;;;;;;;16.38;93.67;99551.59;5056853;28;20056;-72
2021/07/28 01:42:44;;;;;;;6.90;6.20;;;;;;;16.34;94.37;99558.28;5056573;28;20438;-71
2021/07/28 01:45:11;;;;;;;8.35;6.45;;;;;;;16.32;95.17;99550.34;5056717;28;20083;-71
2021/07/28 01:47:40;;;;;;;7.95;5.65;;;;;;;16.35;94.14;99555.44;5056697;28;20060;-72
2021/07/28 01:50:11;;;;;;;9.65;6.47;;;;;;;16.34;94.61;99553.75;5056635;28;20226;-71
2021/07/28 01:52:39;;;;;;;11.43;6.78;;;;;;;16.36;95.90;99553.59;5031154;28;20436;-72
2021/07/28 01:55:07;;;;;;;8.60;5.95;;;;;;;16.43;94.42;99554.72;5036652;28;20099;-71
2021/07/28 01:57:52;;;;;;;10.95;6.15;;;;;;;16.50;93.61;99544.22;5036302;28;20050;-71
2021/07/28 02:00:20;;;;;;;6.75;5.55;;;;;;;16.55;94.09;99549.97;5036433;28;20057;-71
2021/07/28 02:02:47;;;;;;;9.15;5.78;;;;;;;16.56;93.25;99544.47;5036274;28;20482;-71
2021/07/28 02:05:14;;;;;;;7.15;5.70;;;;;;;16.59;93.73;99555.91;5036074;28;20065;-72
2021/07/28 02:07:40;;;;;;;11.23;5.45;;;;;;;16.67;93.00;99554.19;5036588;28;20057;-71
2021/07/28 02:10:08;;;;;;;9.80;5.30;;;;;;;16.75;92.12;99547.22;5036358;28;20418;-71
2021/07/28 02:12:34;;;;;;;7.22;5.30;;;;;;;16.74;93.14;99553.59;5018805;28;20057;-72
2021/07/28 02:15:01;;;;;;;8.80;5.40;;;;;;;16.80;92.10;99550.31;5036143;28;20041;-71
2021/07/28 02:17:28;;;;;;;11.57;5.97;;;;;;;16.82;92.42;99545.63;5035953;28;20053;-71
2021/07/28 02:19:55;;;;;;;10.38;5.25;;;;;;;16.83;91.70;99541.91;5035962;28;20061;-71
2021/07/28 02:22:21;;;;;;;5.75;4.80;;;;;;;16.82;92.41;99546.47;5037249;28;20053;-71
2021/07/28 02:24:48;;;;;;;6.63;5.03;;;;;;;16.83;93.46;99544.59;5038586;28;20045;-71
2021/07/28 02:27:15;;;;;;;8.32;5.50;;;;;;;16.82;93.45;99546.47;5055765;28;20053;-71
2021/07/28 02:29:41;;;;;;;6.20;4.60;;;;;;;16.82;93.05;99542.91;5055812;28;20045;-71
2021/07/28 02:32:08;;;;;;;7.50;4.85;;;;;;;16.83;92.18;99544.59;5055606;28;20049;-71
2021/07/28 02:34:35;;;;;;;7.55;5.05;;;;;;;16.84;91.99;99543.63;5038040;28;20342;-70
2021/07/28 02:37:02;;;;;;;9.15;5.57;;;;;;;16.77;93.05;99531.75;5055840;28;20049;-71
2021/07/28 02:39:29;;;;;;;6.47;5.75;;;;;;;16.74;93.96;99535.59;5038185;28;20098;-71
2021/07/28 02:41:55;;;;;;;7.53;5.45;;;;;;;16.71;93.17;99538.56;5055745;28;20056;-71
2021/07/28 02:44:22;;;;;;;8.23;5.88;;;;;;;16.62;92.61;99521.44;5037958;28;20102;-71
2021/07/28 02:46:49;;;;;;;8.73;4.85;;;;;;;16.64;93.07;99540.16;5055394;28;20053;-71
2021/07/28 02:49:16;;;;;;;7.10;5.43;;;;;;;16.56;94.45;99528.28;5055605;28;20349;-71
2021/07/28 02:51:42;;;;;;;7.90;5.82;;;;;;;16.50;94.13;99525.34;5021685;28;20393;-71
2021/07/28 02:54:10;;;;;;;7.60;5.50;;;;;;;16.50;94.31;99531.56;5018007;28;20458;-71
2021/07/28 02:56:38;;;;;;;12.02;6.13;;;;;;;16.43;96.05;99528.63;5035736;28;20045;-71
2021/07/28 02:59:04;;;;;;;10.13;6.05;;;;;;;16.46;94.47;99534.72;5035308;28;20053;-71
2021/07/28 03:01:31;;;;;;;8.70;5.68;;;;;;;16.39;95.17;99529.91;5035498;28;20076;-71
2021/07/28 03:03:58;;;;;;;10.23;5.63;;;;;;;16.40;94.71;99528.91;5035206;28;20442;-71
2021/07/28 03:06:27;;;;;;;8.40;5.32;;;;;;;16.39;94.92;99523.66;5035069;28;20057;-71
2021/07/28 03:09:05;;;;;;;9.05;5.85;;;;;;;16.34;95.25;99528.66;5019642;28;20077;-71
2021/07/28 03:11:32;;;;;;;8.73;5.90;;;;;;;16.15;95.53;99495.41;5034752;28;20053;-71
2021/07/28 03:13:59;;;;;;;8.32;5.85;;;;;;;16.33;95.31;99518.91;5034963;28;20427;-71
2021/07/28 03:16:26;;;;;;;8.25;5.78;;;;;;;16.33;96.13;99521.59;5035117;28;20501;-71
2021/07/28 03:18:53;;;;;;;6.28;5.63;;;;;;;16.32;96.56;99520.72;5035339;28;20133;-71
2021/07/28 03:21:20;;;;;;;11.80;6.10;;;;;;;16.41;94.46;99522.53;5045404;28;20049;-71
2021/07/28 03:23:47;;;;;;;8.45;5.53;;;;;;;16.38;94.81;99530.06;5055117;28;20057;-70
2021/07/28 03:26:13;;;;;;;12.15;5.88;;;;;;;16.35;94.75;99512.34;5055320;28;20110;-70
2021/07/28 03:28:40;;;;;;;8.45;5.85;;;;;;;16.46;94.35;99522.13;5037601;28;20056;-70
2021/07/28 03:31:06;;;;;;;7.55;5.65;;;;;;;16.47;94.64;99514.88;5037412;28;20106;-70
2021/07/28 03:33:33;;;;;;;8.10;5.60;;;;;;;16.33;94.02;99491.97;5055008;28;20130;-70
2021/07/28 03:36:00;;;;;;;7.40;5.38;;;;;;;16.40;94.93;99518.16;5055225;28;20060;-71
2021/07/28 03:38:27;;;;;;;8.52;5.88;;;;;;;16.41;95.62;99519.84;5037400;28;20461;-71
2021/07/28 03:40:53;;;;;;;7.03;5.55;;;;;;;16.41;94.72;99510.94;5054895;28;20053;-71
2021/07/28 03:43:20;;;;;;;8.00;5.97;;;;;;;16.39;96.01;99516.44;5037546;28;20098;-71
2021/07/28 03:45:46;;;;;;;7.38;5.28;;;;;;;16.43;94.88;99519.69;5055107;28;20116;-71
2021/07/28 03:48:13;;;;;;;7.63;5.63;;;;;;;16.37;94.84;99523.84;5054674;28;20079;-71
2021/07/28 03:50:40;;;;;;;14.00;5.40;;;;;;;16.44;94.79;99526.78;5055062;28;20061;-71
2021/07/28 03:53:06;;;;;;;9.48;5.13;;;;;;;16.47;94.13;99520.25;5043262;28;20049;-71
2021/07/28 03:55:33;;;;;;;6.88;5.47;;;;;;;16.53;93.82;99520.53;5034980;28;20049;-71
2021/07/28 03:57:59;;;;;;;8.63;5.35;;;;;;;16.54;93.97;99526.75;5017622;28;20132;-71
2021/07/28 04:00:26;;;;;;;6.85;4.95;;;;;;;16.61;94.17;99524.31;5017356;28;20112;-71
2021/07/28 04:02:53;;;;;;;6.78;5.60;;;;;;;16.62;95.03;99526.00;5034910;28;20107;-71
2021/07/28 04:05:20;;;;;;;7.68;5.00;;;;;;;16.62;93.80;99529.53;5017071;28;20057;-72
2021/07/28 04:07:55;;;;;;;7.43;5.30;;;;;;;16.65;94.60;99528.38;5034986;28;20050;-71
2021/07/28 04:10:22;;;;;;;8.85;4.82;;;;;;;16.68;94.56;99534.31;5034842;28;20119;-71
2021/07/28 04:12:48;;;;;;;8.27;4.90;;;;;;;16.67;94.14;99519.16;5034847;28;20057;-71
2021/07/28 04:15:15;;;;;;;6.95;5.18;;;;;;;16.74;93.10;99526.66;5017309;28;20388;-71
2021/07/28 04:17:42;;;;;;;5.45;4.68;;;;;;;16.76;93.34;99521.94;5017322;28;20331;-71
2021/07/28 04:20:09;;;;;;;8.73;4.88;;;;;;;16.82;93.05;99524.06;5034887;28;20123;-70
2021/07/28 04:22:35;;;;;;;7.30;4.60;;;;;;;16.82;92.56;99510.56;5055062;28;20048;-71
2021/07/28 04:25:05;;;;;;;10.00;5.85;;;;;;;16.76;92.98;99512.03;5058317;28;20307;-71
2021/07/28 04:27:32;;;;;;;9.63;5.28;;;;;;;16.72;93.40;99512.50;5041213;28;20057;-71
2021/07/28 04:29:59;;;;;;;7.35;5.82;;;;;;;16.61;93.57;99508.16;5058247;28;20052;-71
2021/07/28 04:32:26;;;;;;;6.68;5.20;;;;;;;16.67;93.61;99524.56;5057905;28;20049;-71
2021/07/28 04:34:52;;;;;;;7.40;5.45;;;;;;;16.72;93.43;99520.56;5057880;28;20049;-70
2021/07/28 04:37:20;;;;;;;7.25;5.32;;;;;;;16.72;93.59;99517.88;5057875;28;20049;-71
2021/07/28 04:39:47;;;;;;;13.75;5.72;;;;;;;16.73;93.76;99517.75;5057960;28;20397;-70
2021/07/28 04:42:14;;;;;;;5.35;4.72;;;;;;;16.78;93.69;99522.69;5057815;28;20403;-72
2021/07/28 04:44:41;;;;;;;5.97;4.90;;;;;;;16.76;94.15;99517.44;5040164;28;20049;-73
2021/07/28 04:47:08;;;;;;;9.13;5.55;;;;;;;16.81;93.71;99527.75;5040271;28;20048;-72
2021/07/28 04:49:34;;;;;;;6.43;5.10;;;;;;;16.80;94.13;99526.06;5057622;28;20049;-72
2021/07/28 04:52:01;;;;;;;6.88;5.30;;;;;;;16.92;93.11;99535.66;5039760;28;20434;-72
2021/07/28 04:54:27;;;;;;;6.10;4.90;;;;;;;16.97;93.22;99521.72;5057408;28;20492;-72
2021/07/28 04:56:54;;;;;;;9.73;6.07;;;;;;;17.02;92.61;99529.38;5057667;28;20107;-72
2021/07/28 04:59:20;;;;;;;8.55;5.40;;;;;;;17.03;93.76;99517.56;5039966;28;20057;-72
2021/07/28 05:01:47;;;;;;;8.70;5.57;;;;;;;17.08;93.94;99523.38;5057122;28;20095;-72
2021/07/28 05:04:14;;;;;;;6.63;5.20;;;;;;;17.18;92.21;99523.31;5043542;28;20060;-72
2021/07/28 05:06:41;;;;;;;6.65;5.03;;;;;;;17.15;93.26;99524.47;5046692;28;20123;-72
2021/07/28 05:09:09;;;;;;;7.97;5.28;;;;;;;17.20;92.51;99526.69;5042889;28;20064;-72
2021/07/28 05:11:35;;;;;;;7.22;4.70;;;;;;;17.16;92.65;99526.16;5043472;28;20102;-72
2021/07/28 05:14:02;;;;;;;9.90;5.68;;;;;;;17.13;93.70;99521.06;5038355;28;20427;-72
2021/07/28 05:16:29;;;;;;;7.30;4.55;;;;;;;17.13;93.30;99526.47;5037259;28;20080;-72
2021/07/28 05:18:55;;;;;;;7.65;4.88;;;;;;;17.08;93.35;99528.75;5037405;28;20056;-72
2021/07/28 05:21:22;;;;;;;7.57;4.72;;;;;;;17.08;94.50;99528.75;5051665;28;20048;-72
2021/07/28 05:23:49;;;;;;;6.18;4.82;;;;;;;17.05;94.81;99535.31;5056958;28;20049;-72
2021/07/28 05:26:15;;;;;;;7.22;5.57;;;;;;;17.00;96.49;99525.94;5039309;28;20071;-72
2021/07/28 05:28:42;;;;;;;6.85;5.43;;;;;;;17.03;96.04;99525.66;5056959;28;20400;-72
2021/07/28 05:31:09;;;;;;;5.15;4.65;;;;;;;17.00;96.27;99536.75;5054028;28;20496;-73
2021/07/28 05:33:35;;;;;;;6.43;4.75;;;;;;;16.89;96.20;99519.75;5055502;28;20083;-75
2021/07/28 05:36:02;;;;;;;5.15;4.53;;;;;;;17.05;96.05;99529.09;5055297;28;20087;-74
2021/07/28 05:38:29;;;;;;;6.63;5.28;;;;;;;17.01;97.77;99536.59;5056352;28;20450;-75
2021/07/28 05:40:57;;;;;;;6.88;4.85;;;;;;;17.05;96.19;99537.16;5039027;28;20044;-74
2021/07/28 05:43:25;;;;;;;6.93;5.25;;;;;;;17.03;95.96;99512.19;5054409;28;20056;-76
2021/07/28 05:45:52;;;;;;;6.10;4.93;;;;;;;17.06;96.62;99509.22;5054140;28;20423;-73
2021/07/28 05:48:21;;;;;;;6.05;5.20;;;;;;;16.95;95.77;99497.59;5055202;28;20446;-73
2021/07/28 05:50:52;;;;;;;6.80;4.97;;;;;;;17.32;95.79;99516.56;5053014;28;20438;-75
2021/07/28 05:53:18;;;;;;;11.68;4.68;;;;;;;17.51;93.83;99529.88;5056015;28;20106;-73
2021/07/28 05:55:46;;;;;;;6.95;4.78;;;;;;;17.58;93.50;99531.94;5055370;28;20041;-71
2021/07/28 05:58:16;;;;;;;7.00;4.53;;;;;;;17.72;92.72;99517.94;5054858;28;20430;-72
2021/07/28 06:00:42;;;;;;;8.13;4.55;;;;;;;17.77;92.70;99523.69;5054160;28;20442;-72
2021/07/28 06:03:09;;;;;;;6.22;4.30;;;;;;;17.85;92.97;99514.81;5054382;28;20128;-69
2021/07/28 06:05:36;;;;;;;5.15;4.35;;;;;;;17.95;92.38;99524.66;5060037;28;20051;-70
2021/07/28 06:08:03;;;;;;;8.32;4.35;;;;;;;17.92;93.12;99548.25;5054608;28;20049;-70
2021/07/28 06:10:32;;;;;;;6.55;5.22;;;;;;;17.61;96.80;99567.56;5056815;28;20049;-70
2021/07/28 06:13:02;;;;;;;6.45;3.95;;;;;;;17.17;98.99;99576.38;5039251;28;20049;-70
2021/07/28 06:15:29;;;;;;;6.15;3.20;;;;;;;16.80;98.37;99574.56;5053858;28;20126;-74
2021/07/28 06:17:56;;;;;;;8.00;3.20;;;;;;;16.42;99.25;99556.56;5037586;28;20049;-72
2021/07/28 06:20:23;;;;;;;7.30;3.53;;;;;;;16.36;100.00;99572.44;5054968;28;20099;-74
2021/07/28 06:22:50;;;;;;;10.82;4.63;;;;;;;16.04;100.00;99577.19;5055426;28;20110;-71
2021/07/28 06:25:17;;;;;;;9.15;3.85;;;;;;;15.89;100.00;99572.22;5057795;28;20067;-73
2021/07/28 06:27:49;;;;;;;11.63;3.80;;;;;;;15.74;100.00;99562.88;5057162;28;20049;-74
2021/07/28 06:30:17;;;;;;;10.00;4.00;;;;;;;15.74;100.00;99573.63;5053661;28;20075;-74
2021/07/28 06:32:44;;;;;;;11.55;4.05;;;;;;;15.53;100.00;99568.41;5054397;28;20434;-73
2021/07/28 06:35:16;;;;;;;11.68;4.18;;;;;;;15.36;100.00;99557.34;5055023;28;20052;-72
2021/07/28 06:37:42;;;;;;;8.45;4.30;;;;;;;15.53;100.00;99587.22;5054029;28;20103;-72
2021/07/28 06:40:09;;;;;;;14.20;4.45;;;;;;;15.43;100.00;99585.34;5054489;28;20377;-75
2021/07/28 06:42:36;;;;;;;8.82;4.63;;;;;;;15.44;100.00;99589.78;5051772;28;20044;-76
2021/07/28 06:45:03;;;;;;;8.40;4.30;;;;;;;15.45;100.00;99579.84;5055434;28;20041;-76
2021/07/28 06:47:33;;;;;;;11.07;4.50;;;;;;;15.45;100.00;99580.72;5059675;28;20055;-73
2021/07/28 06:50:03;;;;;;;10.32;4.65;;;;;;;15.48;100.00;99585.78;5066370;28;20068;-72
2021/07/28 06:52:34;;;;;;;7.07;4.28;;;;;;;15.53;100.00;99582.69;5061644;28;20054;-75
2021/07/28 06:55:00;;;;;;;7.70;4.32;;;;;;;15.58;100.00;99588.50;5053984;28;20056;-79
2021/07/28 06:57:28;;;;;;;7.65;4.40;;;;;;;15.58;100.00;99584.97;5054690;28;20609;-70
2021/07/28 06:59:56;;;;;;;7.50;4.75;;;;;;;15.59;100.00;99586.66;5036395;28;20123;-78
2021/07/28 07:02:22;;;;;;;9.90;4.93;;;;;;;15.54;100.00;99579.03;5054398;28;20094;-77
2021/07/28 07:04:49;;;;;;;8.73;4.85;;;;;;;15.54;100.00;99579.03;5053877;28;20347;-75
2021/07/28 07:07:17;;;;;;;9.40;5.05;;;;;;;15.56;100.00;99586.94;5052929;28;20061;-74
2021/07/28 07:09:44;;;;;;;9.40;4.93;;;;;;;15.58;100.00;99585.81;5054501;28;20102;-76
2021/07/28 07:12:11;;;;;;;11.52;5.15;;;;;;;15.56;100.00;99576.19;5053505;28;20076;-75
2021/07/28 07:14:38;;;;;;;9.05;5.60;;;;;;;15.62;100.00;99570.22;5054395;28;20452;-75
2021/07/28 07:17:05;;;;;;;8.32;4.90;;;;;;;15.65;100.00;99574.50;5033938;28;20053;-76
2021/07/28 07:19:36;;;;;;;9.52;5.25;;;;;;;15.74;100.00;99574.50;5036405;28;20087;-75
2021/07/28 07:22:03;;;;;;;8.70;5.40;;;;;;;15.82;100.00;99571.09;5055538;28;20053;-74
2021/07/28 07:24:29;;;;;;;14.57;5.40;;;;;;;15.99;100.00;99582.16;5034046;28;20114;-74
2021/07/28 07:26:56;;;;;;;8.10;5.68;;;;;;;16.05;100.00;99568.13;5052510;28;20049;-74
2021/07/28 07:29:24;;;;;;;9.27;5.93;;;;;;;16.22;100.00;99577.31;5034451;28;20052;-79
2021/07/28 07:31:50;;;;;;;9.20;6.35;;;;;;;16.48;100.00;99583.91;5050580;28;20057;-79
2021/07/28 07:34:17;;;;;;;8.88;5.85;;;;;;;16.60;100.00;99588.13;5052113;28;20328;-75
2021/07/28 07:36:44;;;;;;;11.73;5.85;;;;;;;16.59;100.00;99586.41;5038189;28;20150;-75
2021/07/28 07:39:10;;;;;;;7.80;5.90;;;;;;;16.52;100.00;99588.00;5054231;28;20045;-76
2021/07/28 07:41:37;;;;;;;8.75;6.45;;;;;;;16.43;100.00;99587.03;5056388;28;20040;-76
2021/07/28 07:44:04;;;;;;;9.48;6.25;;;;;;;16.32;100.00;99587.19;5035905;28;20098;-75
2021/07/28 07:46:32;;;;;;;9.30;6.25;;;;;;;16.31;100.00;99577.41;5039738;28;20106;-76
2021/07/28 07:48:59;;;;;;;11.68;6.88;;;;;;;16.21;100.00;99578.31;5070938;28;20098;-77
2021/07/28 07:51:30;;;;;;;9.15;6.70;;;;;;;16.29;100.00;99582.97;5055648;28;20518;-76
2021/07/28 07:53:57;;;;;;;12.32;6.90;;;;;;;16.32;100.00;99579.97;5056504;28;20057;-76
2021/07/28 07:56:24;;;;;;;7.20;5.95;;;;;;;16.43;100.00;99574.44;5059804;28;20048;-76
2021/07/28 07:58:51;;;;;;;9.38;6.43;;;;;;;16.48;100.00;99582.06;5044530;28;20435;-76
2021/07/28 08:01:17;;;;;;;7.93;5.95;;;;;;;16.43;100.00;99558.25;5059375;28;20572;-76
2021/07/28 08:03:44;;;;;;;9.35;6.45;;;;;;;16.53;100.00;99569.00;5062085;28;20052;-76
2021/07/28 08:06:11;;;;;;;6.63;5.65;;;;;;;16.68;100.00;99577.44;5064468;28;20059;-75
2021/07/28 08:08:41;;;;;;;10.63;5.00;;;;;;;16.75;100.00;99574.16;5060971;28;20045;-76
2021/07/28 08:11:12;;;;;;;10.60;5.93;;;;;;;16.85;100.00;99574.97;5053743;28;20049;-77
2021/07/28 08:13:40;;;;;;;7.82;5.28;;;;;;;16.96;100.00;99569.38;5055889;28;20106;-74
2021/07/28 08:16:16;;;;;;;8.57;4.32;;;;;;;17.09;100.00;99568.19;5043913;28;20040;-76
2021/07/28 08:18:43;;;;;;;10.90;4.22;;;;;;;17.06;100.00;99573.91;5063251;28;20053;-75
2021/07/28 08:21:10;;;;;;;8.55;3.90;;;;;;;17.13;99.13;99576.84;5060660;28;20052;-73
2021/07/28 08:23:38;;;;;;;8.82;3.97;;;;;;;17.14;98.09;99552.44;5058774;28;20107;-72
2021/07/28 08:26:05;;;;;;;6.07;3.70;;;;;;;17.24;97.99;99566.72;5058601;28;20075;-70
2021/07/28 08:28:31;;;;;;;7.65;4.00;;;;;;;17.33;96.84;99569.50;5063507;28;20052;-71
2021/07/28 08:30:58;;;;;;;4.95;3.80;;;;;;;17.36;100.00;99577.25;5062216;28;20053;-75
2021/07/28 08:33:27;;;;;;;6.75;4.53;;;;;;;17.47;97.08;99565.41;5055591;28;20053;-75
2021/07/28 08:35:55;;;;;;;6.05;4.10;;;;;;;17.53;97.17;99569.34;5062659;28;20060;-74
2021/07/28 08:38:23;;;;;;;7.18;3.80;;;;;;;17.47;95.26;99566.25;5066648;28;20109;-76
2021/07/28 08:40:55;;;;;;;8.45;4.05;;;;;;;17.58;96.08;99570.56;5066710;28;20049;-75
2021/07/28 08:43:30;;;;;;;6.85;4.28;;;;;;;17.53;96.25;99574.75;5041102;28;20118;-75
2021/07/28 08:45:59;;;;;;;6.63;4.47;;;;;;;17.53;96.28;99570.19;5058621;28;20098;-74
2021/07/28 08:48:27;;;;;;;8.25;4.20;;;;;;;17.59;95.21;99550.69;5057733;28;20056;-74
2021/07/28 08:50:55;;;;;;;5.50;4.10;;;;;;;17.89;90.29;99572.03;5053504;28;20053;-70
2021/07/28 08:53:23;;;;;;;6.28;3.85;;;;;;;17.95;92.06;99563.31;5064654;28;20092;-73
2021/07/28 08:55:56;;;;;;;6.13;3.88;;;;;;;18.07;93.28;99561.22;5067077;28;20091;-74
2021/07/28 08:58:24;;;;;;;6.80;3.25;;;;;;;18.21;89.74;99572.47;5074088;28;20118;-75
2021/07/28 09:00:53;;;;;;;7.35;3.45;;;;;;;18.21;87.91;99538.22;5060616;28;20434;-74
2021/07/28 09:03:20;;;;;;;3.97;3.00;;;;;;;18.57;86.94;99564.22;5060331;28;20338;-73
2021/07/28 09:05:48;;;;;;;5.90;3.15;;;;;;;18.67;84.52;99573.09;5056503;28;20099;-72
2021/07/28 09:08:29;;;;;;;5.55;2.97;;;;;;;18.77;81.01;99572.97;5061818;28;20415;-70
2021/07/28 09:11:05;;;;;;;6.82;2.72;;;;;;;18.73;81.85;99571.59;5062814;28;20394;-74
2021/07/28 09:13:38;;;;;;;3.88;2.53;;;;;;;18.73;80.64;99571.59;5055288;28;20048;-73
2021/07/28 09:16:06;;;;;;;6.70;2.70;;;;;;;18.75;83.25;99569.59;5054453;28;20053;-71
2021/07/28 09:18:37;;;;;;;6.38;3.40;;;;;;;18.95;79.75;99566.63;5056537;28;20084;-71
2021/07/28 09:21:19;;;;;;;7.75;2.83;;;;;;;18.92;80.65;99566.94;5062756;28;20053;-72
2021/07/28 09:23:46;;;;;;;4.70;2.78;;;;;;;18.82;78.20;99576.03;5059635;28;20122;-70
2021/07/28 09:26:31;;;;;;;5.47;2.45;;;;;;;18.79;77.84;99573.63;5075264;28;20049;-71
2021/07/28 09:29:11;;;;;;;3.63;2.65;;;;;;;18.81;78.94;99565.38;5062295;28;20323;-72
2021/07/28 09:31:50;;;;;;;3.42;2.33;;;;;;;18.95;76.30;99586.38;5060457;28;20079;-75
2021/07/28 09:34:19;;;;;;;4.72;2.67;;;;;;;19.09;77.47;99581.41;5055736;28;20430;-73
2021/07/28 09:36:50;;;;;;;4.55;2.28;;;;;;;19.23;75.85;99582.66;5054150;28;20048;-74
2021/07/28 09:39:30;;;;;;;3.05;2.50;;;;;;;19.31;74.46;99571.84;5053867;28;20049;-74
2021/07/28 09:41:59;;;;;;;7.70;2.50;;;;;;;19.41;74.15;99583.34;5059632;28;20049;-75
2021/07/28 09:44:31;;;;;;;8.35;2.42;;;;;;;19.49;70.59;99576.25;5060351;28;20347;-73
2021/07/28 09:47:11;;;;;;;3.20;1.92;;;;;;;19.41;72.13;99582.50;5063659;28;20044;-74
2021/07/28 09:49:43;;;;;;;6.10;2.35;;;;;;;19.46;72.26;99579.31;5055158;28;20111;-73
2021/07/28 09:52:19;;;;;;;4.45;2.20;;;;;;;19.57;70.02;99578.13;5055297;28;20418;-73
2021/07/28 09:54:47;;;;;;;4.30;2.05;;;;;;;19.70;68.87;99577.63;5056906;28;20437;-74
2021/07/28 09:57:20;;;;;;;4.38;2.53;;;;;;;19.83;67.84;99567.16;5053448;28;20107;-73
2021/07/28 09:59:59;;;;;;;3.17;2.45;;;;;;;19.73;67.47;99539.41;5053525;28;20120;-76
2021/07/28 10:02:26;;;;;;;4.13;2.13;;;;;;;20.02;67.15;99566.00;5053961;28;20045;-76
2021/07/28 10:04:54;;;;;;;5.95;1.83;;;;;;;20.11;63.50;99569.56;5054395;28;20057;-71
2021/07/28 10:07:22;;;;;;;3.13;1.65;;;;;;;20.04;64.97;99568.56;5055686;28;20465;-70
2021/07/28 10:10:09;;;;;;;6.90;1.77;;;;;;;20.11;64.98;99557.88;5054168;28;20041;-70
2021/07/28 10:12:38;;;;;;;1.98;1.73;;;;;;;20.19;64.84;99564.13;5054738;28;20091;-71
2021/07/28 10:15:10;;;;;;;5.47;1.90;;;;;;;20.39;63.05;99560.19;5054273;28;20104;-71
2021/07/28 10:17:40;;;;;;;4.78;2.10;;;;;;;20.45;63.48;99560.38;5048991;28;20045;-72
2021/07/28 10:20:09;;;;;;;4.18;1.90;;;;;;;20.57;63.15;99557.25;5053915;28;20102;-71
2021/07/28 10:22:37;;;;;;;10.63;2.63;;;;;;;20.70;61.44;99546.72;5034771;28;20057;-71
2021/07/28 10:25:10;;;;;;;5.53;1.88;;;;;;;20.72;61.16;99560.97;5054424;28;20091;-71
2021/07/28 10:27:46;;;;;;;6.93;1.98;;;;;;;21.00;58.38;99565.97;5059919;28;20099;-71
2021/07/28 10:30:15;;;;;;;3.22;1.83;;;;;;;21.13;56.61;99556.41;5059903;28;20049;-71
2021/07/28 10:32:44;;;;;;;4.40;2.17;;;;;;;21.31;58.69;99564.28;5054805;28;20049;-69
2021/07/28 10:35:30;;;;;;;5.03;1.75;;;;;;;21.37;57.23;99573.56;5054062;28;20422;-72
2021/07/28 10:38:04;;;;;;;4.28;1.75;;;;;;;21.36;55.51;99564.56;5053935;28;20433;-73
2021/07/28 10:40:32;;;;;;;3.55;1.77;;;;;;;21.55;57.60;99565.13;5052197;28;20040;-74
2021/07/28 10:43:00;;;;;;;5.00;2.05;;;;;;;21.60;57.73;99572.72;5035634;28;20106;-72
2021/07/28 10:45:59;;;;;;;3.53;1.70;;;;;;;21.58;56.09;99565.63;5054717;28;20041;-70
2021/07/28 10:48:41;;;;;;;3.42;1.88;;;;;;;21.50;57.58;99578.41;5049289;28;20392;-72
2021/07/28 10:51:08;;;;;;;2.47;1.65;;;;;;;21.54;57.52;99567.03;5054893;28;20095;-75
2021/07/28 10:53:46;;;;;;;3.38;1.42;;;;;;;21.33;55.24;99567.66;5044889;28;20094;-72
2021/07/28 10:56:12;;;;;;;3.25;1.70;;;;;;;21.67;55.20;99569.13;5056073;28;20048;-72
2021/07/28 10:58:39;;;;;;;2.92;1.70;;;;;;;21.83;54.91;99576.34;5065703;28;20056;-77
2021/07/28 11:01:05;;;;;;;4.68;1.50;;;;;;;22.00;54.31;99578.06;5052204;28;20056;-72
2021/07/28 11:03:35;;;;;;;5.45;1.92;;;;;;;21.80;56.04;99563.09;5055165;28;20040;-72
2021/07/28 11:06:19;;;;;;;8.17;1.83;;;;;;;21.58;55.64;99571.03;5059007;28;20063;-72
2021/07/28 11:08:46;;;;;;;4.38;1.65;;;;;;;21.21;55.96;99585.34;5059122;28;20335;-72
2021/07/28 11:11:21;;;;;;;6.03;2.17;;;;;;;21.47;56.19;99584.19;5053385;28;20122;-72
2021/07/28 11:13:48;;;;;;;3.40;1.60;;;;;;;21.44;57.50;99585.41;5053819;28;20053;-72
2021/07/28 11:16:15;;;;;;;4.22;1.67;;;;;;;21.33;57.46;99589.38;5053954;28;20045;-71
2021/07/28 11:18:48;;;;;;;3.60;1.67;;;;;;;21.36;58.11;99585.44;5054617;28;20079;-71
2021/07/28 11:21:23;;;;;;;6.47;1.70;;;;;;;20.98;58.41;99592.41;5054368;28;20045;-71
2021/07/28 11:23:53;;;;;;;4.95;1.52;;;;;;;20.76;60.23;99577.72;5054723;28;20510;-71
2021/07/28 11:26:26;;;;;;;4.00;1.70;;;;;;;20.78;60.62;99591.94;5055050;28;20052;-71
2021/07/28 11:29:15;;;;;;;6.82;1.80;;;;;;;20.87;60.01;99590.91;5055107;28;20114;-71
2021/07/28 11:31:44;;;;;;;2.70;1.63;;;;;;;20.91;60.25;99582.44;5055387;28;20064;-73
2021/07/28 11:34:21;;;;;;;4.60;1.73;;;;;;;21.20;61.27;99578.25;5039953;28;20056;-72
2021/07/28 11:36:57;;;;;;;4.68;2.08;;;;;;;21.78;59.49;99584.19;5041690;28;20049;-72
2021/07/28 11:39:24;;;;;;;3.80;1.70;;;;;;;21.86;59.14;99587.84;5059066;28;20053;-72
2021/07/28 11:42:04;;;;;;;2.67;1.50;;;;;;;21.79;58.73;99571.44;5058999;28;20065;-72